This is the latest recevied weather packets stored in our database for station/object KB8TTR. If no packets are shown the sender has not sent any weather packets the latest 10 day(s).
| Time | Temp. | Humidity | Pressure | Rain* | Wind** | Luminosity | Snow |
|---|---|---|---|---|---|---|---|
| 1787871881 | 26.67° C | 58% | 1015.7 hPa | 0 mm | - | 41 W/m² | - |
| 1787871576 | 26.67° C | 59% | 1015.5 hPa | 0 mm | - | 60 W/m² | - |
| 1787871272 | 26.67° C | 59% | 1015.6 hPa | 0 mm | - | 48 W/m² | - |
| 1787870969 | 26.67° C | 59% | 1015.5 hPa | 0 mm | - | 50 W/m² | - |
| 1787870666 | 26.67° C | 58% | 1015.4 hPa | 0 mm | - | 50 W/m² | - |
| 1787870366 | 27.22° C | 56% | 1015.3 hPa | 0 mm | - | 58 W/m² | - |
| 1787870062 | 27.22° C | 56% | 1015.4 hPa | 0 mm | - | 58 W/m² | - |
| 1787869760 | 27.22° C | 56% | 1015.1 hPa | 0 mm | - | 55 W/m² | - |
| 1787869455 | 27.22° C | 57% | 1015.4 hPa | 0 mm | - | 55 W/m² | - |
| 1787869150 | 27.22° C | 57% | 1015.5 hPa | 0 mm | - | 60 W/m² | - |
| 1787868849 | 27.22° C | 55% | 1015.3 hPa | 0 mm | - | 59 W/m² | - |
| 1787868547 | 27.22° C | 56% | 1015.3 hPa | 0 mm | - | 61 W/m² | - |
| 1787868247 | 27.22° C | 55% | 1015.3 hPa | 0 mm | - | 68 W/m² | - |
| 1787867942 | 26.67° C | 56% | 1015.3 hPa | 0 mm | - | 68 W/m² | - |
| 1787867638 | 27.22° C | 56% | 1015.3 hPa | 0 mm | - | 76 W/m² | - |
| 1787867332 | 27.22° C | 56% | 1015.3 hPa | 0 mm | - | 75 W/m² | - |
| 1787867028 | 27.78° C | 55% | 1015.4 hPa | 0 mm | - | 79 W/m² | - |
| 1787866723 | 27.78° C | 55% | 1015.5 hPa | 0 mm | - | 99 W/m² | - |
| 1787866422 | 27.78° C | 58% | 1015.5 hPa | 0 mm | - | 135 W/m² | - |
| 1787866117 | 27.78° C | 55% | 1015.6 hPa | 0 mm | - | 115 W/m² | - |
| 1787865817 | 27.78° C | 56% | 1015.4 hPa | 0 mm | - | 135 W/m² | - |
| 1787865513 | 27.78° C | 53% | 1015.3 hPa | 0 mm | - | 96 W/m² | - |
| 1787865207 | 27.78° C | 54% | 1015.5 hPa | 0 mm | - | 120 W/m² | - |
| 1787864903 | 27.78° C | 53% | 1015.5 hPa | 0 mm | - | 86 W/m² | - |
| 1787864598 | 28.33° C | 52% | 1015.4 hPa | 0 mm | - | 146 W/m² | - |
* Rain latest hour (hover to see other rain measurements)
** Current wind speed in m/s (hover to see current wind gust speed)